sensor_id;sensor_type;location;lat;lon;timestamp;temperature;humidity
3628;DHT22;1830;49.000;12.074;2023-06-04T00:01:31;15.20;76.50
3628;DHT22;1830;49.000;12.074;2023-06-04T00:03:58;15.10;75.60
3628;DHT22;1830;49.000;12.074;2023-06-04T00:06:25;15.10;75.90
3628;DHT22;1830;49.000;12.074;2023-06-04T00:08:53;15.00;76.10
3628;DHT22;1830;49.000;12.074;2023-06-04T00:11:20;15.10;76.50
3628;DHT22;1830;49.000;12.074;2023-06-04T00:13:47;15.00;76.50
3628;DHT22;1830;49.000;12.074;2023-06-04T00:16:13;14.90;76.60
3628;DHT22;1830;49.000;12.074;2023-06-04T00:18:40;14.80;76.60
3628;DHT22;1830;49.000;12.074;2023-06-04T00:21:07;14.70;76.60
3628;DHT22;1830;49.000;12.074;2023-06-04T00:23:33;14.70;76.50
3628;DHT22;1830;49.000;12.074;2023-06-04T00:26:03;14.70;77.20
3628;DHT22;1830;49.000;12.074;2023-06-04T00:28:29;14.70;76.90
3628;DHT22;1830;49.000;12.074;2023-06-04T00:30:56;14.80;77.80
3628;DHT22;1830;49.000;12.074;2023-06-04T00:33:23;14.80;77.90
3628;DHT22;1830;49.000;12.074;2023-06-04T00:35:50;14.70;77.70
3628;DHT22;1830;49.000;12.074;2023-06-04T00:38:17;14.70;78.60
3628;DHT22;1830;49.000;12.074;2023-06-04T00:40:43;14.70;77.00
3628;DHT22;1830;49.000;12.074;2023-06-04T00:43:12;14.60;77.50
3628;DHT22;1830;49.000;12.074;2023-06-04T00:45:40;14.60;78.50
3628;DHT22;1830;49.000;12.074;2023-06-04T00:48:07;14.60;77.70
3628;DHT22;1830;49.000;12.074;2023-06-04T00:50:34;14.60;77.90
3628;DHT22;1830;49.000;12.074;2023-06-04T00:53:04;14.50;76.80
3628;DHT22;1830;49.000;12.074;2023-06-04T00:55:31;14.50;76.40
3628;DHT22;1830;49.000;12.074;2023-06-04T00:57:58;14.40;76.50
3628;DHT22;1830;49.000;12.074;2023-06-04T01:00:27;14.50;77.60
3628;DHT22;1830;49.000;12.074;2023-06-04T01:02:55;14.40;77.40
3628;DHT22;1830;49.000;12.074;2023-06-04T01:05:36;14.40;78.30
3628;DHT22;1830;49.000;12.074;2023-06-04T01:08:04;14.40;78.70
3628;DHT22;1830;49.000;12.074;2023-06-04T01:10:35;14.30;79.20
3628;DHT22;1830;49.000;12.074;2023-06-04T01:13:01;14.20;79.20
3628;DHT22;1830;49.000;12.074;2023-06-04T01:15:30;14.20;80.50
3628;DHT22;1830;49.000;12.074;2023-06-04T01:17:59;14.20;80.80
3628;DHT22;1830;49.000;12.074;2023-06-04T01:20:34;14.10;81.10
3628;DHT22;1830;49.000;12.074;2023-06-04T01:23:22;14.00;81.70
3628;DHT22;1830;49.000;12.074;2023-06-04T01:25:54;14.00;82.50
3628;DHT22;1830;49.000;12.074;2023-06-04T01:28:23;13.90;82.30
3628;DHT22;1830;49.000;12.074;2023-06-04T01:30:52;13.90;82.80
3628;DHT22;1830;49.000;12.074;2023-06-04T01:33:22;13.90;83.40
3628;DHT22;1830;49.000;12.074;2023-06-04T01:35:49;13.90;83.30
3628;DHT22;1830;49.000;12.074;2023-06-04T01:38:16;13.80;83.10
3628;DHT22;1830;49.000;12.074;2023-06-04T01:40:43;13.70;83.50
3628;DHT22;1830;49.000;12.074;2023-06-04T01:43:10;13.60;83.60
3628;DHT22;1830;49.000;12.074;2023-06-04T01:45:37;13.60;83.80
3628;DHT22;1830;49.000;12.074;2023-06-04T01:48:06;13.50;84.00
3628;DHT22;1830;49.000;12.074;2023-06-04T01:50:33;13.50;83.90
3628;DHT22;1830;49.000;12.074;2023-06-04T01:52:59;13.50;84.10
3628;DHT22;1830;49.000;12.074;2023-06-04T01:55:26;13.40;84.10
3628;DHT22;1830;49.000;12.074;2023-06-04T01:57:55;13.50;85.10
3628;DHT22;1830;49.000;12.074;2023-06-04T02:00:22;13.40;85.10
3628;DHT22;1830;49.000;12.074;2023-06-04T02:02:49;13.40;85.10
3628;DHT22;1830;49.000;12.074;2023-06-04T02:05:17;13.40;85.30
3628;DHT22;1830;49.000;12.074;2023-06-04T02:07:45;13.30;85.30
3628;DHT22;1830;49.000;12.074;2023-06-04T02:10:15;13.30;85.10
3628;DHT22;1830;49.000;12.074;2023-06-04T02:12:55;13.20;85.10
3628;DHT22;1830;49.000;12.074;2023-06-04T02:15:23;13.20;85.10
3628;DHT22;1830;49.000;12.074;2023-06-04T02:17:50;13.10;85.80
3628;DHT22;1830;49.000;12.074;2023-06-04T02:20:18;13.00;85.80
3628;DHT22;1830;49.000;12.074;2023-06-04T02:22:45;12.90;85.70
3628;DHT22;1830;49.000;12.074;2023-06-04T02:25:13;12.90;85.80
3628;DHT22;1830;49.000;12.074;2023-06-04T02:27:41;12.90;86.30
3628;DHT22;1830;49.000;12.074;2023-06-04T02:30:09;12.90;86.30
3628;DHT22;1830;49.000;12.074;2023-06-04T02:32:36;12.80;86.20
3628;DHT22;1830;49.000;12.074;2023-06-04T02:35:03;12.80;86.40
3628;DHT22;1830;49.000;12.074;2023-06-04T02:37:31;12.80;87.10
3628;DHT22;1830;49.000;12.074;2023-06-04T02:39:58;12.80;87.10
3628;DHT22;1830;49.000;12.074;2023-06-04T02:42:25;12.70;87.00
3628;DHT22;1830;49.000;12.074;2023-06-04T02:44:52;12.70;87.40
3628;DHT22;1830;49.000;12.074;2023-06-04T02:47:19;12.60;87.30
3628;DHT22;1830;49.000;12.074;2023-06-04T02:49:46;12.70;88.10
3628;DHT22;1830;49.000;12.074;2023-06-04T02:52:13;12.60;87.90
3628;DHT22;1830;49.000;12.074;2023-06-04T02:54:41;12.60;88.20
3628;DHT22;1830;49.000;12.074;2023-06-04T02:57:08;12.40;87.70
3628;DHT22;1830;49.000;12.074;2023-06-04T02:59:35;12.40;87.20
3628;DHT22;1830;49.000;12.074;2023-06-04T03:02:02;12.30;87.50
3628;DHT22;1830;49.000;12.074;2023-06-04T03:04:28;12.30;87.70
3628;DHT22;1830;49.000;12.074;2023-06-04T03:07:00;12.30;88.20
3628;DHT22;1830;49.000;12.074;2023-06-04T03:09:28;12.40;88.80
3628;DHT22;1830;49.000;12.074;2023-06-04T03:12:00;12.40;89.30
3628;DHT22;1830;49.000;12.074;2023-06-04T03:14:27;12.40;89.70
3628;DHT22;1830;49.000;12.074;2023-06-04T03:16:58;12.40;89.90
3628;DHT22;1830;49.000;12.074;2023-06-04T03:19:33;12.30;89.60
3628;DHT22;1830;49.000;12.074;2023-06-04T03:22:00;12.20;89.70
3628;DHT22;1830;49.000;12.074;2023-06-04T03:24:33;12.30;90.10
3628;DHT22;1830;49.000;12.074;2023-06-04T03:27:03;12.20;90.20
3628;DHT22;1830;49.000;12.074;2023-06-04T03:29:31;12.30;90.50
3628;DHT22;1830;49.000;12.074;2023-06-04T03:31:58;12.20;90.20
3628;DHT22;1830;49.000;12.074;2023-06-04T03:34:25;12.20;90.40
3628;DHT22;1830;49.000;12.074;2023-06-04T03:36:53;12.20;90.50
3628;DHT22;1830;49.000;12.074;2023-06-04T03:39:20;12.10;90.30
3628;DHT22;1830;49.000;12.074;2023-06-04T03:41:47;12.00;90.30
3628;DHT22;1830;49.000;12.074;2023-06-04T03:44:16;12.00;90.40
3628;DHT22;1830;49.000;12.074;2023-06-04T03:46:44;12.00;90.10
3628;DHT22;1830;49.000;12.074;2023-06-04T03:49:12;12.10;90.00
3628;DHT22;1830;49.000;12.074;2023-06-04T03:51:39;12.00;90.10
3628;DHT22;1830;49.000;12.074;2023-06-04T03:54:06;12.00;89.80
3628;DHT22;1830;49.000;12.074;2023-06-04T03:56:33;11.90;89.10
3628;DHT22;1830;49.000;12.074;2023-06-04T03:59:00;11.90;89.30
3628;DHT22;1830;49.000;12.074;2023-06-04T04:01:28;12.00;90.00
3628;DHT22;1830;49.000;12.074;2023-06-04T04:03:56;12.00;90.20
3628;DHT22;1830;49.000;12.074;2023-06-04T04:06:23;12.10;90.10
3628;DHT22;1830;49.000;12.074;2023-06-04T04:08:50;12.10;90.10
3628;DHT22;1830;49.000;12.074;2023-06-04T04:11:17;12.00;89.50
3628;DHT22;1830;49.000;12.074;2023-06-04T04:13:45;12.10;90.10
3628;DHT22;1830;49.000;12.074;2023-06-04T04:16:11;12.10;90.00
3628;DHT22;1830;49.000;12.074;2023-06-04T04:18:42;12.10;89.30
3628;DHT22;1830;49.000;12.074;2023-06-04T04:21:09;12.20;89.70
3628;DHT22;1830;49.000;12.074;2023-06-04T04:23:38;12.10;89.80
3628;DHT22;1830;49.000;12.074;2023-06-04T04:26:05;12.20;90.10
3628;DHT22;1830;49.000;12.074;2023-06-04T04:28:32;12.20;90.10
3628;DHT22;1830;49.000;12.074;2023-06-04T04:30:59;12.20;90.30
3628;DHT22;1830;49.000;12.074;2023-06-04T04:33:28;12.30;90.50
3628;DHT22;1830;49.000;12.074;2023-06-04T04:35:59;12.30;90.20
3628;DHT22;1830;49.000;12.074;2023-06-04T04:38:27;12.40;90.50
3628;DHT22;1830;49.000;12.074;2023-06-04T04:40:54;12.30;89.70
3628;DHT22;1830;49.000;12.074;2023-06-04T04:43:33;12.30;89.90
3628;DHT22;1830;49.000;12.074;2023-06-04T04:46:00;12.40;89.70
3628;DHT22;1830;49.000;12.074;2023-06-04T04:48:27;12.40;88.90
3628;DHT22;1830;49.000;12.074;2023-06-04T04:50:54;12.40;89.20
3628;DHT22;1830;49.000;12.074;2023-06-04T04:53:22;12.50;89.80
3628;DHT22;1830;49.000;12.074;2023-06-04T04:55:49;12.50;90.00
3628;DHT22;1830;49.000;12.074;2023-06-04T04:58:17;12.50;89.10
3628;DHT22;1830;49.000;12.074;2023-06-04T05:00:44;12.50;88.60
3628;DHT22;1830;49.000;12.074;2023-06-04T05:03:11;12.40;87.70
3628;DHT22;1830;49.000;12.074;2023-06-04T05:05:38;12.50;88.40
3628;DHT22;1830;49.000;12.074;2023-06-04T05:08:05;12.60;88.70
3628;DHT22;1830;49.000;12.074;2023-06-04T05:10:33;12.60;88.80
3628;DHT22;1830;49.000;12.074;2023-06-04T05:13:02;12.60;88.50
3628;DHT22;1830;49.000;12.074;2023-06-04T05:15:30;12.70;89.40
3628;DHT22;1830;49.000;12.074;2023-06-04T05:17:57;12.80;89.00
3628;DHT22;1830;49.000;12.074;2023-06-04T05:20:26;12.80;88.20
3628;DHT22;1830;49.000;12.074;2023-06-04T05:22:53;12.90;88.60
3628;DHT22;1830;49.000;12.074;2023-06-04T05:25:20;13.00;87.60
3628;DHT22;1830;49.000;12.074;2023-06-04T05:27:49;13.00;87.10
3628;DHT22;1830;49.000;12.074;2023-06-04T05:30:15;13.00;87.30
3628;DHT22;1830;49.000;12.074;2023-06-04T05:32:42;13.00;87.00
3628;DHT22;1830;49.000;12.074;2023-06-04T05:35:09;13.10;88.00
3628;DHT22;1830;49.000;12.074;2023-06-04T05:37:37;13.00;87.30
3628;DHT22;1830;49.000;12.074;2023-06-04T05:40:07;13.00;87.20
3628;DHT22;1830;49.000;12.074;2023-06-04T05:42:35;13.10;87.70
3628;DHT22;1830;49.000;12.074;2023-06-04T05:45:04;13.20;87.90
3628;DHT22;1830;49.000;12.074;2023-06-04T05:47:33;13.30;88.00
3628;DHT22;1830;49.000;12.074;2023-06-04T05:50:00;13.30;87.70
3628;DHT22;1830;49.000;12.074;2023-06-04T05:52:27;13.30;86.60
3628;DHT22;1830;49.000;12.074;2023-06-04T05:54:54;13.40;86.90
3628;DHT22;1830;49.000;12.074;2023-06-04T05:57:21;13.40;86.30
3628;DHT22;1830;49.000;12.074;2023-06-04T05:59:47;13.40;86.40
3628;DHT22;1830;49.000;12.074;2023-06-04T06:02:16;13.50;86.70
3628;DHT22;1830;49.000;12.074;2023-06-04T06:04:42;13.50;87.00
3628;DHT22;1830;49.000;12.074;2023-06-04T06:07:09;13.60;87.90
3628;DHT22;1830;49.000;12.074;2023-06-04T06:09:36;13.60;87.10
3628;DHT22;1830;49.000;12.074;2023-06-04T06:12:03;13.80;87.40
3628;DHT22;1830;49.000;12.074;2023-06-04T06:14:31;13.80;86.90
3628;DHT22;1830;49.000;12.074;2023-06-04T06:16:58;13.80;86.40
3628;DHT22;1830;49.000;12.074;2023-06-04T06:19:29;13.90;87.40
3628;DHT22;1830;49.000;12.074;2023-06-04T06:21:57;14.00;87.50
3628;DHT22;1830;49.000;12.074;2023-06-04T06:24:25;14.10;88.50
3628;DHT22;1830;49.000;12.074;2023-06-04T06:26:52;14.10;87.40
3628;DHT22;1830;49.000;12.074;2023-06-04T06:29:18;14.20;87.20
3628;DHT22;1830;49.000;12.074;2023-06-04T06:31:45;14.20;87.00
3628;DHT22;1830;49.000;12.074;2023-06-04T06:34:12;14.20;86.20
3628;DHT22;1830;49.000;12.074;2023-06-04T06:36:40;14.20;85.90
3628;DHT22;1830;49.000;12.074;2023-06-04T06:39:08;14.30;86.30
3628;DHT22;1830;49.000;12.074;2023-06-04T06:41:36;14.30;87.00
3628;DHT22;1830;49.000;12.074;2023-06-04T06:44:04;14.40;87.30
3628;DHT22;1830;49.000;12.074;2023-06-04T06:46:30;14.40;87.30
3628;DHT22;1830;49.000;12.074;2023-06-04T06:48:57;14.50;86.60
3628;DHT22;1830;49.000;12.074;2023-06-04T06:51:24;14.50;86.20
3628;DHT22;1830;49.000;12.074;2023-06-04T06:53:52;14.70;87.00
3628;DHT22;1830;49.000;12.074;2023-06-04T06:56:19;14.70;87.40
3628;DHT22;1830;49.000;12.074;2023-06-04T06:58:46;14.80;87.10
3628;DHT22;1830;49.000;12.074;2023-06-04T07:01:13;14.80;87.20
3628;DHT22;1830;49.000;12.074;2023-06-04T07:03:40;14.80;86.80
3628;DHT22;1830;49.000;12.074;2023-06-04T07:06:07;14.90;86.50
3628;DHT22;1830;49.000;12.074;2023-06-04T07:08:34;14.90;86.20
3628;DHT22;1830;49.000;12.074;2023-06-04T07:11:03;15.00;87.20
3628;DHT22;1830;49.000;12.074;2023-06-04T07:13:30;15.10;87.20
3628;DHT22;1830;49.000;12.074;2023-06-04T07:16:00;15.20;87.00
3628;DHT22;1830;49.000;12.074;2023-06-04T07:18:27;15.20;86.90
3628;DHT22;1830;49.000;12.074;2023-06-04T07:20:54;15.30;87.60
3628;DHT22;1830;49.000;12.074;2023-06-04T07:23:21;15.30;86.80
3628;DHT22;1830;49.000;12.074;2023-06-04T07:25:48;15.30;86.50
3628;DHT22;1830;49.000;12.074;2023-06-04T07:28:16;15.40;86.60
3628;DHT22;1830;49.000;12.074;2023-06-04T07:30:45;15.50;86.80
3628;DHT22;1830;49.000;12.074;2023-06-04T07:33:12;15.60;87.60
3628;DHT22;1830;49.000;12.074;2023-06-04T07:35:39;15.60;87.20
3628;DHT22;1830;49.000;12.074;2023-06-04T07:38:05;15.70;86.60
3628;DHT22;1830;49.000;12.074;2023-06-04T07:40:32;15.80;87.00
3628;DHT22;1830;49.000;12.074;2023-06-04T07:42:59;15.90;86.20
3628;DHT22;1830;49.000;12.074;2023-06-04T07:45:27;15.90;86.50
3628;DHT22;1830;49.000;12.074;2023-06-04T07:47:56;16.00;86.90
3628;DHT22;1830;49.000;12.074;2023-06-04T07:50:23;16.10;86.50
3628;DHT22;1830;49.000;12.074;2023-06-04T07:52:50;16.10;85.80
3628;DHT22;1830;49.000;12.074;2023-06-04T07:55:17;16.20;86.20
3628;DHT22;1830;49.000;12.074;2023-06-04T07:57:44;16.20;86.20
3628;DHT22;1830;49.000;12.074;2023-06-04T08:00:11;16.30;86.20
3628;DHT22;1830;49.000;12.074;2023-06-04T08:02:42;16.50;86.10
3628;DHT22;1830;49.000;12.074;2023-06-04T08:05:08;16.50;83.50
3628;DHT22;1830;49.000;12.074;2023-06-04T08:07:35;16.50;82.40
3628;DHT22;1830;49.000;12.074;2023-06-04T08:10:02;16.60;82.80
3628;DHT22;1830;49.000;12.074;2023-06-04T08:12:29;16.60;82.80
3628;DHT22;1830;49.000;12.074;2023-06-04T08:14:56;16.60;82.50
3628;DHT22;1830;49.000;12.074;2023-06-04T08:17:23;16.70;82.20
3628;DHT22;1830;49.000;12.074;2023-06-04T08:19:51;16.70;82.60
3628;DHT22;1830;49.000;12.074;2023-06-04T08:22:18;16.80;83.00
3628;DHT22;1830;49.000;12.074;2023-06-04T08:24:45;16.80;81.80
3628;DHT22;1830;49.000;12.074;2023-06-04T08:27:12;16.90;82.50
3628;DHT22;1830;49.000;12.074;2023-06-04T08:29:38;17.00;82.10
3628;DHT22;1830;49.000;12.074;2023-06-04T08:32:06;17.00;82.50
3628;DHT22;1830;49.000;12.074;2023-06-04T08:34:34;17.20;82.80
3628;DHT22;1830;49.000;12.074;2023-06-04T08:37:02;17.20;81.10
3628;DHT22;1830;49.000;12.074;2023-06-04T08:39:30;17.20;81.20
3628;DHT22;1830;49.000;12.074;2023-06-04T08:42:00;17.40;81.60
3628;DHT22;1830;49.000;12.074;2023-06-04T08:44:27;17.50;80.00
3628;DHT22;1830;49.000;12.074;2023-06-04T08:47:02;17.60;80.40
3628;DHT22;1830;49.000;12.074;2023-06-04T08:49:33;17.60;78.80
3628;DHT22;1830;49.000;12.074;2023-06-04T08:52:20;17.60;77.20
3628;DHT22;1830;49.000;12.074;2023-06-04T08:55:01;17.70;76.90
3628;DHT22;1830;49.000;12.074;2023-06-04T08:57:31;17.80;77.40
3628;DHT22;1830;49.000;12.074;2023-06-04T08:59:58;17.90;77.60
3628;DHT22;1830;49.000;12.074;2023-06-04T09:02:27;17.90;76.20
3628;DHT22;1830;49.000;12.074;2023-06-04T09:04:54;18.00;77.10
3628;DHT22;1830;49.000;12.074;2023-06-04T09:07:24;18.10;77.20
3628;DHT22;1830;49.000;12.074;2023-06-04T09:09:51;18.20;76.90
3628;DHT22;1830;49.000;12.074;2023-06-04T09:12:23;18.20;76.60
3628;DHT22;1830;49.000;12.074;2023-06-04T09:14:50;18.10;76.40
3628;DHT22;1830;49.000;12.074;2023-06-04T09:17:21;18.20;77.50
3628;DHT22;1830;49.000;12.074;2023-06-04T09:19:49;18.30;77.40
3628;DHT22;1830;49.000;12.074;2023-06-04T09:22:17;18.30;76.10
3628;DHT22;1830;49.000;12.074;2023-06-04T09:24:47;18.30;75.80
3628;DHT22;1830;49.000;12.074;2023-06-04T09:27:16;18.30;75.50
3628;DHT22;1830;49.000;12.074;2023-06-04T09:29:50;18.40;74.70
3628;DHT22;1830;49.000;12.074;2023-06-04T09:32:21;18.50;74.60
3628;DHT22;1830;49.000;12.074;2023-06-04T09:34:48;18.60;74.70
3628;DHT22;1830;49.000;12.074;2023-06-04T09:37:15;18.80;74.60
3628;DHT22;1830;49.000;12.074;2023-06-04T09:39:42;18.80;73.40
3628;DHT22;1830;49.000;12.074;2023-06-04T09:42:11;18.90;72.70
3628;DHT22;1830;49.000;12.074;2023-06-04T09:44:43;19.00;71.90
3628;DHT22;1830;49.000;12.074;2023-06-04T09:47:11;19.00;70.30
3628;DHT22;1830;49.000;12.074;2023-06-04T09:49:40;19.10;70.30
3628;DHT22;1830;49.000;12.074;2023-06-04T09:52:08;19.20;71.80
3628;DHT22;1830;49.000;12.074;2023-06-04T09:54:36;19.20;71.50
3628;DHT22;1830;49.000;12.074;2023-06-04T09:57:04;19.40;72.50
3628;DHT22;1830;49.000;12.074;2023-06-04T09:59:36;19.50;73.50
3628;DHT22;1830;49.000;12.074;2023-06-04T10:02:06;19.60;72.90
3628;DHT22;1830;49.000;12.074;2023-06-04T10:04:36;19.60;71.50
3628;DHT22;1830;49.000;12.074;2023-06-04T10:07:13;19.70;70.50
3628;DHT22;1830;49.000;12.074;2023-06-04T10:09:43;19.70;71.50
3628;DHT22;1830;49.000;12.074;2023-06-04T10:12:13;19.90;71.40
3628;DHT22;1830;49.000;12.074;2023-06-04T10:14:47;20.00;70.70
3628;DHT22;1830;49.000;12.074;2023-06-04T10:17:17;20.10;70.40
3628;DHT22;1830;49.000;12.074;2023-06-04T10:19:44;20.20;69.90
3628;DHT22;1830;49.000;12.074;2023-06-04T10:22:12;20.20;68.70
3628;DHT22;1830;49.000;12.074;2023-06-04T10:24:39;20.30;68.20
3628;DHT22;1830;49.000;12.074;2023-06-04T10:27:06;20.50;69.70
3628;DHT22;1830;49.000;12.074;2023-06-04T10:29:36;20.50;69.60
3628;DHT22;1830;49.000;12.074;2023-06-04T10:32:05;20.50;67.80
3628;DHT22;1830;49.000;12.074;2023-06-04T10:34:32;20.60;68.00
3628;DHT22;1830;49.000;12.074;2023-06-04T10:36:59;20.80;69.00
3628;DHT22;1830;49.000;12.074;2023-06-04T10:39:26;20.90;67.70
3628;DHT22;1830;49.000;12.074;2023-06-04T10:42:00;20.90;66.10
3628;DHT22;1830;49.000;12.074;2023-06-04T10:44:28;20.90;65.70
3628;DHT22;1830;49.000;12.074;2023-06-04T10:46:57;21.00;65.50
3628;DHT22;1830;49.000;12.074;2023-06-04T10:49:29;21.00;65.50
3628;DHT22;1830;49.000;12.074;2023-06-04T10:51:57;21.20;66.60
3628;DHT22;1830;49.000;12.074;2023-06-04T10:54:28;21.30;66.60
3628;DHT22;1830;49.000;12.074;2023-06-04T10:56:55;21.40;65.80
3628;DHT22;1830;49.000;12.074;2023-06-04T10:59:22;21.50;65.50
3628;DHT22;1830;49.000;12.074;2023-06-04T11:01:49;21.60;65.00
3628;DHT22;1830;49.000;12.074;2023-06-04T11:04:20;21.70;64.80
3628;DHT22;1830;49.000;12.074;2023-06-04T11:07:00;21.80;64.50
3628;DHT22;1830;49.000;12.074;2023-06-04T11:09:29;21.90;64.90
3628;DHT22;1830;49.000;12.074;2023-06-04T11:11:57;22.00;63.90
3628;DHT22;1830;49.000;12.074;2023-06-04T11:14:24;22.00;63.30
3628;DHT22;1830;49.000;12.074;2023-06-04T11:16:51;22.10;62.80
3628;DHT22;1830;49.000;12.074;2023-06-04T11:19:17;22.20;63.20
3628;DHT22;1830;49.000;12.074;2023-06-04T11:21:45;22.30;63.50
3628;DHT22;1830;49.000;12.074;2023-06-04T11:24:14;22.60;63.60
3628;DHT22;1830;49.000;12.074;2023-06-04T11:26:41;22.70;63.30
3628;DHT22;1830;49.000;12.074;2023-06-04T11:29:10;22.80;63.70
3628;DHT22;1830;49.000;12.074;2023-06-04T11:31:42;22.90;62.80
3628;DHT22;1830;49.000;12.074;2023-06-04T11:34:09;22.90;62.70
3628;DHT22;1830;49.000;12.074;2023-06-04T11:36:37;23.00;61.90
3628;DHT22;1830;49.000;12.074;2023-06-04T11:39:05;23.10;61.80
3628;DHT22;1830;49.000;12.074;2023-06-04T11:41:35;22.80;59.70
3628;DHT22;1830;49.000;12.074;2023-06-04T11:44:09;22.90;61.50
3628;DHT22;1830;49.000;12.074;2023-06-04T11:46:39;23.00;61.10
3628;DHT22;1830;49.000;12.074;2023-06-04T11:49:06;23.20;60.40
3628;DHT22;1830;49.000;12.074;2023-06-04T11:51:33;23.10;59.60
3628;DHT22;1830;49.000;12.074;2023-06-04T11:54:01;23.20;60.00
3628;DHT22;1830;49.000;12.074;2023-06-04T11:56:29;23.30;60.60
3628;DHT22;1830;49.000;12.074;2023-06-04T11:58:57;23.50;61.40
3628;DHT22;1830;49.000;12.074;2023-06-04T12:01:24;23.60;60.70
3628;DHT22;1830;49.000;12.074;2023-06-04T12:03:54;23.80;61.10
3628;DHT22;1830;49.000;12.074;2023-06-04T12:06:20;23.80;60.30
3628;DHT22;1830;49.000;12.074;2023-06-04T12:08:48;23.90;59.60
3628;DHT22;1830;49.000;12.074;2023-06-04T12:11:29;24.00;59.40
3628;DHT22;1830;49.000;12.074;2023-06-04T12:13:59;23.80;58.20
3628;DHT22;1830;49.000;12.074;2023-06-04T12:16:27;23.90;59.30
3628;DHT22;1830;49.000;12.074;2023-06-04T12:19:05;24.00;59.10
3628;DHT22;1830;49.000;12.074;2023-06-04T12:21:32;24.10;62.00
3628;DHT22;1830;49.000;12.074;2023-06-04T12:24:10;23.80;58.50
3628;DHT22;1830;49.000;12.074;2023-06-04T12:26:37;24.10;59.40
3628;DHT22;1830;49.000;12.074;2023-06-04T12:29:12;24.20;59.60
3628;DHT22;1830;49.000;12.074;2023-06-04T12:31:39;24.20;58.20
3628;DHT22;1830;49.000;12.074;2023-06-04T12:34:08;24.40;58.30
3628;DHT22;1830;49.000;12.074;2023-06-04T12:36:35;24.50;58.30
3628;DHT22;1830;49.000;12.074;2023-06-04T12:39:02;24.50;58.30
3628;DHT22;1830;49.000;12.074;2023-06-04T12:41:30;24.60;58.30
3628;DHT22;1830;49.000;12.074;2023-06-04T12:43:59;24.60;58.00
3628;DHT22;1830;49.000;12.074;2023-06-04T12:46:28;24.80;59.80
3628;DHT22;1830;49.000;12.074;2023-06-04T12:48:55;24.90;58.20
3628;DHT22;1830;49.000;12.074;2023-06-04T12:51:22;24.80;57.10
3628;DHT22;1830;49.000;12.074;2023-06-04T12:53:49;24.70;56.50
3628;DHT22;1830;49.000;12.074;2023-06-04T12:56:16;24.80;57.70
3628;DHT22;1830;49.000;12.074;2023-06-04T12:58:43;25.00;58.80
3628;DHT22;1830;49.000;12.074;2023-06-04T13:01:10;25.00;57.10
3628;DHT22;1830;49.000;12.074;2023-06-04T13:03:40;24.90;57.70
3628;DHT22;1830;49.000;12.074;2023-06-04T13:06:07;25.20;58.40
3628;DHT22;1830;49.000;12.074;2023-06-04T13:08:34;25.10;56.90
3628;DHT22;1830;49.000;12.074;2023-06-04T13:11:01;25.20;57.70
3628;DHT22;1830;49.000;12.074;2023-06-04T13:13:28;25.20;57.00
3628;DHT22;1830;49.000;12.074;2023-06-04T13:15:55;25.20;58.00
3628;DHT22;1830;49.000;12.074;2023-06-04T13:18:22;25.30;56.80
3628;DHT22;1830;49.000;12.074;2023-06-04T13:20:50;25.40;57.00
3628;DHT22;1830;49.000;12.074;2023-06-04T13:23:17;25.50;57.00
3628;DHT22;1830;49.000;12.074;2023-06-04T13:25:44;25.60;57.00
3628;DHT22;1830;49.000;12.074;2023-06-04T13:28:11;25.60;57.70
3628;DHT22;1830;49.000;12.074;2023-06-04T13:30:38;25.60;56.20
3628;DHT22;1830;49.000;12.074;2023-06-04T13:33:05;25.50;56.00
3628;DHT22;1830;49.000;12.074;2023-06-04T13:35:32;25.70;56.40
3628;DHT22;1830;49.000;12.074;2023-06-04T13:38:07;25.80;55.70
3628;DHT22;1830;49.000;12.074;2023-06-04T13:40:34;25.90;55.70
3628;DHT22;1830;49.000;12.074;2023-06-04T13:43:01;25.90;55.90
3628;DHT22;1830;49.000;12.074;2023-06-04T13:45:28;25.90;54.30
3628;DHT22;1830;49.000;12.074;2023-06-04T13:47:56;26.00;54.30
3628;DHT22;1830;49.000;12.074;2023-06-04T13:50:27;26.00;55.10
3628;DHT22;1830;49.000;12.074;2023-06-04T13:52:54;26.10;55.50
3628;DHT22;1830;49.000;12.074;2023-06-04T13:55:23;26.10;55.00
3628;DHT22;1830;49.000;12.074;2023-06-04T13:57:49;25.80;55.60
3628;DHT22;1830;49.000;12.074;2023-06-04T14:00:23;25.90;54.90
3628;DHT22;1830;49.000;12.074;2023-06-04T14:02:50;26.10;55.70
3628;DHT22;1830;49.000;12.074;2023-06-04T14:05:27;25.90;54.30
3628;DHT22;1830;49.000;12.074;2023-06-04T14:07:55;26.10;55.10
3628;DHT22;1830;49.000;12.074;2023-06-04T14:10:23;25.80;53.70
3628;DHT22;1830;49.000;12.074;2023-06-04T14:12:50;26.00;54.70
3628;DHT22;1830;49.000;12.074;2023-06-04T14:15:16;25.90;54.60
3628;DHT22;1830;49.000;12.074;2023-06-04T14:17:43;25.80;54.20
3628;DHT22;1830;49.000;12.074;2023-06-04T14:20:10;25.60;54.30
3628;DHT22;1830;49.000;12.074;2023-06-04T14:22:37;25.80;55.10
3628;DHT22;1830;49.000;12.074;2023-06-04T14:25:05;25.60;54.00
3628;DHT22;1830;49.000;12.074;2023-06-04T14:27:35;25.60;54.30
3628;DHT22;1830;49.000;12.074;2023-06-04T14:30:02;25.50;54.70
3628;DHT22;1830;49.000;12.074;2023-06-04T14:32:29;25.50;53.20
3628;DHT22;1830;49.000;12.074;2023-06-04T14:34:57;25.30;53.10
3628;DHT22;1830;49.000;12.074;2023-06-04T14:37:24;25.10;52.20
3628;DHT22;1830;49.000;12.074;2023-06-04T14:39:51;25.00;52.40
3628;DHT22;1830;49.000;12.074;2023-06-04T14:42:18;25.10;53.90
3628;DHT22;1830;49.000;12.074;2023-06-04T14:44:46;25.30;54.80
3628;DHT22;1830;49.000;12.074;2023-06-04T14:47:14;25.20;54.50
3628;DHT22;1830;49.000;12.074;2023-06-04T14:49:41;25.20;54.50
3628;DHT22;1830;49.000;12.074;2023-06-04T14:52:07;25.00;55.80
3628;DHT22;1830;49.000;12.074;2023-06-04T14:54:34;25.20;56.00
3628;DHT22;1830;49.000;12.074;2023-06-04T14:57:01;25.30;56.70
3628;DHT22;1830;49.000;12.074;2023-06-04T14:59:28;25.20;55.70
3628;DHT22;1830;49.000;12.074;2023-06-04T15:01:57;25.00;54.90
3628;DHT22;1830;49.000;12.074;2023-06-04T15:04:23;24.90;54.30
3628;DHT22;1830;49.000;12.074;2023-06-04T15:06:50;24.90;55.10
3628;DHT22;1830;49.000;12.074;2023-06-04T15:09:17;24.90;54.60
3628;DHT22;1830;49.000;12.074;2023-06-04T15:11:44;24.90;54.80
3628;DHT22;1830;49.000;12.074;2023-06-04T15:14:11;24.90;54.00
3628;DHT22;1830;49.000;12.074;2023-06-04T15:16:37;25.00;55.00
3628;DHT22;1830;49.000;12.074;2023-06-04T15:19:05;25.00;56.20
3628;DHT22;1830;49.000;12.074;2023-06-04T15:21:33;25.00;56.20
3628;DHT22;1830;49.000;12.074;2023-06-04T15:24:00;24.90;56.20
3628;DHT22;1830;49.000;12.074;2023-06-04T15:26:27;24.90;56.10
3628;DHT22;1830;49.000;12.074;2023-06-04T15:28:54;24.80;56.00
3628;DHT22;1830;49.000;12.074;2023-06-04T15:31:21;24.70;56.00
3628;DHT22;1830;49.000;12.074;2023-06-04T15:33:48;24.60;56.50
3628;DHT22;1830;49.000;12.074;2023-06-04T15:36:16;24.70;56.60
3628;DHT22;1830;49.000;12.074;2023-06-04T15:38:43;24.70;57.90
3628;DHT22;1830;49.000;12.074;2023-06-04T15:41:10;24.60;57.40
3628;DHT22;1830;49.000;12.074;2023-06-04T15:43:37;24.40;57.50
3628;DHT22;1830;49.000;12.074;2023-06-04T15:46:04;24.40;58.40
3628;DHT22;1830;49.000;12.074;2023-06-04T15:48:31;24.50;57.50
3628;DHT22;1830;49.000;12.074;2023-06-04T15:50:57;24.60;57.20